Flight Track Log - Related Links

Times and Time Zones

All times are in EDT time to prevent confusion due to time zone crossing. See the SWA397 flight status page for this flight to view local times or setup timezone preferences in your user account.

Time Position Orientation Groundspeed Altitude Reporting Facility
EDT Latitude Longitude Course Direction KTS MPH feet Rate Location/Type
Tue 12:26:22 PM 39.9200 -104.7050 342° North 201 231 6,900  Level FlightAware ADS-B
Tue 12:26:46 PM 39.9430 -104.7140 343° North 228 262 7,400 2,036 Climbing FlightAware ADS-B
Tue 12:27:18 PM 39.9690 -104.7420 320° Northwest 231 266 8,800 2,441 Climbing FlightAware ADS-B
Tue 12:27:45 PM 39.9870 -104.7710 309° West 237 273 9,800 1,594 Climbing FlightAware ADS-B
Tue 12:28:22 PM 40.0110 -104.8150 305° West 235 270 10,500 1,269 Climbing FlightAware ADS-B
Tue 12:28:37 PM 40.0120 -104.8350 274° West 252 290 10,900 2,357 Climbing FlightAware ADS-B
Tue 12:29:18 PM 40.0050 -104.8980 262° West 251 289 12,700 2,296 Climbing FlightAware ADS-B
Tue 12:29:58 PM 40.0020 -104.9610 266° West 279 321 14,000 1,390 Climbing FlightAware ADS-B
Tue 12:30:40 PM 39.9990 -105.0380 267° West 332 382 14,600 1,214 Climbing FlightAware ADS-B
Tue 12:31:22 PM 39.9960 -105.1250 267° West 358 412 15,700 2,000 Climbing FlightAware ADS-B
Tue 12:32:07 PM 39.9810 -105.2240 259° West 372 428 17,500 2,023 Climbing FlightAware ADS-B
Tue 12:32:48 PM 39.9420 -105.3020 237° Southwest 401 461 18,600 1,806 Climbing FlightAware ADS-B
Tue 12:33:50 PM 39.8640 -105.4160 228° Southwest 416 479 20,600 1,846 Climbing FlightAware ADS-B
Tue 12:34:32 PM 39.8100 -105.4990 230° Southwest 427 491 21,800 1,041 Climbing FlightAware ADS-B
Tue 12:35:28 PM 39.7460 -105.5950 229° Southwest 430 495 22,300 288 Climbing FlightAware ADS-B
Tue 12:36:16 PM 39.6920 -105.6750 229° Southwest 430 495 22,300 2,659 Level FlightAware ADS-B
Tue 12:36:56 PM 39.6820 -105.8200 265° West 438 504 26,200 3,831 Climbing FlightAware ADS-B
Tue 12:37:39 PM 39.6660 -105.9330 260° West 438 504 27,600 1,586 Climbing FlightAware ADS-B
Tue 12:38:23 PM 39.6370 -106.0420 251° West 443 510 28,500 1,432 Climbing FlightAware ADS-B
Tue 12:39:07 PM 39.6060 -106.1520 250° West 442 509 29,700 1,571 Climbing FlightAware ADS-B
Tue 12:39:47 PM 39.5780 -106.2530 250° West 442 509 30,700 1,407 Climbing FlightAware ADS-B
Tue 12:40:28 PM 39.5490 -106.3550 250° West 445 512 31,600 1,425 Climbing FlightAware ADS-B
Tue 12:41:07 PM 39.5220 -106.4510 250° West 441 507 32,600 1,694 Climbing FlightAware ADS-B
Tue 12:41:53 PM 39.4910 -106.5640 250° West 429 494 34,000 1,714 Climbing FlightAware ADS-B
Tue 12:42:38 PM 39.4600 -106.6710 249° West 421 484 35,200 1,425 Climbing FlightAware ADS-B
Tue 12:43:13 PM 39.4370 -106.7530 250° West 417 480 35,900 578 Climbing FlightAware ADS-B
Tue 12:44:01 PM 39.4050 -106.8660 250° West 418 481 36,000 59 Climbing FlightAware ADS-B
Tue 12:44:55 PM 39.3700 -106.9869 250° West 416 479 36,000  Level Denver Center
Tue 12:45:57 PM 39.3317 -107.1206 250° West 414 476 36,000  Level Denver Center
Tue 12:47:00 PM 39.2861 -107.2764 249° West 412 474 36,000  Level Denver Center
Tue 12:48:02 PM 39.2472 -107.4117 250° West 417 480 36,000  Level Denver Center
Tue 12:49:04 PM 39.2017 -107.5678 249° West 417 480 36,000  Level Denver Center
Tue 12:50:06 PM 39.1611 -107.7025 249° West 418 481 36,000  Level Denver Center
Tue 12:51:08 PM 39.1214 -107.8367 249° West 419 482 36,000  Level Denver Center
Tue 12:52:10 PM 39.0758 -107.9931 249° West 417 480 36,000  Level Denver Center
Tue 12:53:12 PM 39.0356 -108.1275 249° West 418 481 36,000  Level Denver Center
Tue 12:54:14 PM 38.9878 -108.2842 249° West 427 491 36,000  Level Denver Center
Tue 12:55:16 PM 38.9461 -108.4214 249° West 431 496 36,000  Level Denver Center
Tue 12:56:18 PM 38.8986 -108.5806 249° West 423 487 36,000  Level Denver Center
Tue 12:57:20 PM 38.8575 -108.7172 249° West 425 489 36,000  Level Denver Center
Tue 01:03:23 PM 38.5920 -109.5740 249° West 421 484 36,000  Level FlightAware ADS-B
Tue 01:04:04 PM 38.5630 -109.6670 248° West 420 483 36,000  Level FlightAware ADS-B
Tue 01:04:43 PM 38.5350 -109.7560 248° West 422 486 36,000  Level FlightAware ADS-B
Tue 01:05:28 PM 38.5010 -109.8600 247° West 423 487 36,000  Level FlightAware ADS-B
Tue 01:06:08 PM 38.4720 -109.9520 248° West 425 489 36,000  Level FlightAware ADS-B
Tue 01:06:52 PM 38.4400 -110.0540 248° West 426 490 36,000  Level FlightAware ADS-B
Tue 01:07:35 PM 38.4070 -110.1550 247° West 427 491 36,000  Level FlightAware ADS-B
Tue 01:08:15 PM 38.3770 -110.2490 248° West 427 491 36,000  Level FlightAware ADS-B
Tue 01:08:57 PM 38.3450 -110.3470 247° West 429 494 36,000 -570 Level FlightAware ADS-B
Tue 01:13:52 PM 38.1050 -111.0150 246° West 413 475 32,800 -692 Descending FlightAware ADS-B
Tue 01:14:35 PM 38.0630 -111.1030 239° Southwest 408 470 32,100 -608 Descending FlightAware ADS-B
Tue 01:15:11 PM 38.0280 -111.1780 239° Southwest 415 478 32,000 -79 Descending FlightAware ADS-B
Tue 01:15:51 PM 37.9880 -111.2610 239° Southwest 432 497 32,000  Level FlightAware ADS-B
Tue 01:16:31 PM 37.9450 -111.3500 239° Southwest 435 501 32,000  Level FlightAware ADS-B
Tue 01:17:13 PM 37.9020 -111.4400 239° Southwest 436 502 32,000  Level FlightAware ADS-B
Tue 01:17:47 PM 37.8660 -111.5140 238° Southwest 436 502 32,000  Level FlightAware ADS-B
Tue 01:18:33 PM 37.8180 -111.6130 238° Southwest 437 503 32,000  Level FlightAware ADS-B
Tue 01:19:11 PM 37.7790 -111.6950 239° Southwest 437 503 32,000  Level FlightAware ADS-B
Tue 01:19:54 PM 37.7390 -111.7740 237° Southwest 437 503 32,000  Level FlightAware ADS-B
Tue 01:20:30 PM 37.7070 -111.8410 239° Southwest 437 503 32,000  Level FlightAware ADS-B
Tue 01:21:19 PM 37.6620 -111.9310 238° Southwest 437 503 32,000  Level FlightAware ADS-B
Tue 01:21:55 PM 37.6290 -111.9970 238° Southwest 437 503 32,000  Level FlightAware ADS-B
Tue 01:22:31 PM 37.5960 -112.0630 238° Southwest 437 503 32,000  Level FlightAware ADS-B
Tue 01:23:19 PM 37.5530 -112.1520 239° Southwest 437 503 32,000  Level FlightAware ADS-B
Tue 01:23:55 PM 37.5200 -112.2180 238° Southwest 437 503 32,000  Level FlightAware ADS-B
Tue 01:24:31 PM 37.4870 -112.2840 238° Southwest 437 503 32,000  Level FlightAware ADS-B
Tue 01:25:20 PM 37.4420 -112.3740 238° Southwest 437 503 32,000  Level FlightAware ADS-B
Tue 01:25:56 PM 37.4100 -112.4400 239° Southwest 437 503 32,000  Level FlightAware ADS-B
Tue 01:26:32 PM 37.3770 -112.5060 238° Southwest 437 503 32,000  Level FlightAware ADS-B
Tue 01:27:32 PM 37.3220 -112.6160 238° Southwest 437 503 32,000  Level FlightAware ADS-B
Tue 01:28:08 PM 37.2890 -112.6820 238° Southwest 437 503 32,000  Level FlightAware ADS-B
Tue 01:28:56 PM 37.2460 -112.7700 238° Southwest 437 503 32,000 -1,519 Level FlightAware ADS-B
Tue 01:30:46 PM 37.0440 -113.1740 238° Southwest 415 478 28,000 -1,644 Descending FlightAware ADS-B
Tue 01:31:22 PM 37.0050 -113.2500 237° Southwest 434 499 28,000  Level FlightAware ADS-B
Tue 01:32:04 PM 36.9600 -113.3390 238° Southwest 441 507 28,000  Level FlightAware ADS-B
Tue 01:32:46 PM 36.9140 -113.4290 237° Southwest 441 507 28,000  Level FlightAware ADS-B
Tue 01:33:29 PM 36.8660 -113.5230 237° Southwest 441 507 28,000 -786 Level FlightAware ADS-B
Tue 01:34:10 PM 36.8220 -113.6090 237° Southwest 434 499 26,900 -2,000 Descending FlightAware ADS-B
Tue 01:34:50 PM 36.7790 -113.6930 237° Southwest 428 493 25,300 -2,372 Descending FlightAware ADS-B
Tue 01:35:36 PM 36.7300 -113.7870 237° Southwest 418 481 23,500 -2,329 Descending FlightAware ADS-B
Tue 01:36:15 PM 36.6890 -113.8670 237° Southwest 412 474 22,000 -2,320 Descending FlightAware ADS-B
Tue 01:36:51 PM 36.6530 -113.9370 237° Southwest 407 468 20,600 -2,286 Descending FlightAware ADS-B
Tue 01:37:39 PM 36.6040 -114.0310 237° Southwest 396 456 18,800 -2,225 Descending FlightAware ADS-B
Tue 01:38:20 PM 36.5650 -114.1090 238° Southwest 391 450 17,300 -2,163 Descending FlightAware ADS-B
Tue 01:39:05 PM 36.5250 -114.1950 240° Southwest 385 443 15,700 -2,143 Descending FlightAware ADS-B
Tue 01:39:44 PM 36.4910 -114.2690 240° Southwest 378 435 14,300 -2,143 Descending FlightAware ADS-B
Tue 01:40:29 PM 36.4530 -114.3540 241° Southwest 369 425 12,700 -1,500 Descending FlightAware ADS-B
Tue 01:41:08 PM 36.4210 -114.4230 240° Southwest 337 388 12,200 -608 Descending FlightAware ADS-B
Tue 01:41:48 PM 36.3850 -114.4800 232° Southwest 305 351 11,900 -207 Descending FlightAware ADS-B
Tue 01:42:06 PM 36.3630 -114.4890 198° South 302 348 12,000  Climbing FlightAware ADS-B
Tue 01:42:56 PM 36.3020 -114.5050 192° South 286 329 11,900 -71 Descending FlightAware ADS-B
Tue 01:43:30 PM 36.2650 -114.5150 192° South 286 329 11,900  Level FlightAware ADS-B
Tue 01:44:19 PM 36.2110 -114.5290 192° South 286 329 11,900 -1,212 Level FlightAware ADS-B
Tue 01:45:09 PM 36.1410 -114.4880 155° Southeast 247 284 9,900 -1,520 Descending FlightAware ADS-B
Tue 01:45:34 PM 36.1150 -114.4960 194° South 244 281 10,000 162 Climbing FlightAware ADS-B
Tue 01:45:46 PM 36.1010 -114.5000 193° South 245 282 10,000 -429 Level FlightAware ADS-B
Tue 01:46:02 PM 36.0860 -114.5110 211° Southwest 243 280 9,800 -1,125 Descending FlightAware ADS-B
Tue 01:46:18 PM 36.0780 -114.5320 245° Southwest 247 284 9,400 -1,448 Descending FlightAware ADS-B
Tue 01:46:31 PM 36.0750 -114.5500 258° West 248 285 9,100 -1,024 Descending FlightAware ADS-B
Tue 01:46:59 PM 36.0720 -114.5880 264° West 248 285 8,700 -857 Descending FlightAware ADS-B
Tue 01:47:27 PM 36.0730 -114.6280 272° West 242 278 8,300 -778 Descending FlightAware ADS-B
Tue 01:47:53 PM 36.0730 -114.6630 270° West 238 274 8,000 -732 Descending FlightAware ADS-B
Tue 01:48:08 PM 36.0730 -114.6830 270° West 237 273 7,800 -133 Descending FlightAware ADS-B
Tue 01:48:38 PM 36.0730 -114.7250 270° West 240 276 7,900 -200 Climbing FlightAware ADS-B
Tue 01:49:08 PM 36.0730 -114.7660 270° West 244 281 7,600 -1,111 Descending FlightAware ADS-B
Tue 01:49:32 PM 36.0730 -114.8000 270° West 252 290 6,900 -1,444 Descending FlightAware ADS-B
Tue 01:50:02 PM 36.0740 -114.8440 272° West 245 282 6,300 -1,138 Descending FlightAware ADS-B
Tue 01:50:30 PM 36.0740 -114.8820 270° West 233 268 5,800 -545 Descending FlightAware ADS-B
Tue 01:50:57 PM 36.0740 -114.9120 270° West 233 268 5,800 -1,245 Level FlightAware ADS-B
Tue 01:51:23 PM 36.0740 -114.9480 270° West 211 243 4,700 -1,714 Descending FlightAware ADS-B
Tue 01:51:53 PM 36.0740 -114.9830 270° West 190 219 4,200 -1,043 Descending FlightAware ADS-B
Tue 01:52:09 PM 36.0740 -115.0000 270° West 179 206 3,900 -947 Descending FlightAware ADS-B
Tue 01:52:31 PM 36.0740 -115.0210 270° West 165 190 3,600 -889 Descending FlightAware ADS-B
Tue 01:53:03 PM 36.0740 -115.0500 270° West 163 188 3,100 -875 Descending FlightAware ADS-B
Tue 01:53:19 PM 36.0740 -115.0650 270° West 160 184 2,900 -682 Descending FlightAware ADS-B
Tue 01:53:47 PM 36.0740 -115.0910 270° West 165 190 2,600 -750 Descending FlightAware ADS-B
Tue 01:54:07 PM 36.0740 -115.1110 270° West 166 191 2,300 -900 Descending FlightAware ADS-B
Tue 01:54:43 PM 36.0740 -115.1420 270° West 130 150 -3,833 Descending FlightAware ADS-B
Tue 01:55:09 PM 36.0740 -115.1580 270° West 130 150  Level FlightAware ADS-B
Tue 02:02:00 PM 36.0667 -115.1500 219° Southwest  Level FlightAware Approximate

Login

Don't have an account? Register now (free) for customized features, flight alerts, and more!